Terminal Aerodrome Forecast
Issued by NWS Greer, SC

Home | Current Version | Previous Version | Graphics & Text | Print | Product List | Glossary On
Versions: 1 2 3 4 5 6 7 8 9 10 11 12 13 14 15 16 17 18
000
FTUS42 KGSP 230035 AAA
TAFAVL
TAF AMD
KAVL 230035Z 2301/2324 15005KT P6SM FEW015 SCT045 OVC120
      TEMPO 2301/2304 2SM BR OVC003
     FM230400 14003KT 1SM BR OVC003
     FM231500 15003KT P6SM BKN015
     FM231600 16003KT P6SM BKN060
     FM232200 16006KT P6SM SCT060=

USA.gov is the U.S. government's official web portal to all federal, state and local government web resources and services.